sensor_id;sensor_type;location;lat;lon;timestamp;P1;durP1;ratioP1;P2;durP2;ratioP2
71759;SDS011;59919;48.112;16.280;2024-03-23T00:52:21;2.50;;;2.30;;
71759;SDS011;59919;48.112;16.280;2024-03-23T00:54:53;2.95;;;2.42;;
71759;SDS011;59919;48.112;16.280;2024-03-23T00:57:26;2.53;;;2.22;;
71759;SDS011;59919;48.112;16.280;2024-03-23T00:59:57;2.63;;;2.22;;
71759;SDS011;59919;48.112;16.280;2024-03-23T01:02:28;3.78;;;2.42;;
71759;SDS011;59919;48.112;16.280;2024-03-23T01:04:59;4.05;;;2.40;;
71759;SDS011;59919;48.112;16.280;2024-03-23T01:07:37;2.78;;;2.15;;
71759;SDS011;59919;48.112;16.280;2024-03-23T01:10:11;2.65;;;2.15;;
71759;SDS011;59919;48.112;16.280;2024-03-23T01:12:42;2.30;;;2.10;;
71759;SDS011;59919;48.112;16.280;2024-03-23T01:15:16;2.50;;;2.30;;
71759;SDS011;59919;48.112;16.280;2024-03-23T01:17:49;4.00;;;2.42;;
71759;SDS011;59919;48.112;16.280;2024-03-23T01:20:22;2.65;;;2.30;;
71759;SDS011;59919;48.112;16.280;2024-03-23T01:22:56;2.40;;;2.20;;
71759;SDS011;59919;48.112;16.280;2024-03-23T01:25:29;2.10;;;1.90;;
71759;SDS011;59919;48.112;16.280;2024-03-23T01:28:01;2.22;;;1.95;;
71759;SDS011;59919;48.112;16.280;2024-03-23T01:30:37;2.95;;;2.28;;
71759;SDS011;59919;48.112;16.280;2024-03-23T01:33:08;2.20;;;2.00;;
71759;SDS011;59919;48.112;16.280;2024-03-23T01:35:39;2.33;;;2.13;;
71759;SDS011;59919;48.112;16.280;2024-03-23T01:38:11;2.33;;;2.13;;
71759;SDS011;59919;48.112;16.280;2024-03-23T01:40:42;2.78;;;2.20;;
71759;SDS011;59919;48.112;16.280;2024-03-23T01:43:13;2.15;;;1.95;;
71759;SDS011;59919;48.112;16.280;2024-03-23T01:45:47;3.15;;;2.17;;
71759;SDS011;59919;48.112;16.280;2024-03-23T01:48:20;2.53;;;2.13;;
71759;SDS011;59919;48.112;16.280;2024-03-23T01:50:56;2.67;;;2.20;;
71759;SDS011;59919;48.112;16.280;2024-03-23T01:53:27;2.45;;;2.25;;
71759;SDS011;59919;48.112;16.280;2024-03-23T01:55:58;2.42;;;2.08;;
71759;SDS011;59919;48.112;16.280;2024-03-23T01:58:30;2.97;;;2.45;;
71759;SDS011;59919;48.112;16.280;2024-03-23T02:01:01;2.42;;;2.20;;
71759;SDS011;59919;48.112;16.280;2024-03-23T02:03:32;2.22;;;2.03;;
71759;SDS011;59919;48.112;16.280;2024-03-23T02:06:06;3.13;;;2.35;;
71759;SDS011;59919;48.112;16.280;2024-03-23T02:08:39;2.47;;;1.90;;
71759;SDS011;59919;48.112;16.280;2024-03-23T02:11:11;3.50;;;2.10;;
71759;SDS011;59919;48.112;16.280;2024-03-23T02:13:45;2.45;;;2.20;;
71759;SDS011;59919;48.112;16.280;2024-03-23T02:16:16;2.55;;;2.30;;
71759;SDS011;59919;48.112;16.280;2024-03-23T02:18:47;2.97;;;2.65;;
71759;SDS011;59919;48.112;16.280;2024-03-23T02:21:18;2.55;;;2.25;;
71759;SDS011;59919;48.112;16.280;2024-03-23T02:23:49;2.13;;;1.92;;
71759;SDS011;59919;48.112;16.280;2024-03-23T02:26:23;4.70;;;2.20;;
71759;SDS011;59919;48.112;16.280;2024-03-23T02:28:54;2.78;;;2.15;;
71759;SDS011;59919;48.112;16.280;2024-03-23T02:31:25;2.80;;;2.00;;
71759;SDS011;59919;48.112;16.280;2024-03-23T02:34:00;2.92;;;2.20;;
71759;SDS011;59919;48.112;16.280;2024-03-23T02:36:31;2.28;;;2.08;;
71759;SDS011;59919;48.112;16.280;2024-03-23T02:39:06;2.40;;;2.00;;
71759;SDS011;59919;48.112;16.280;2024-03-23T02:41:37;2.00;;;1.80;;
71759;SDS011;59919;48.112;16.280;2024-03-23T02:44:08;2.60;;;2.40;;
71759;SDS011;59919;48.112;16.280;2024-03-23T02:46:42;2.38;;;2.17;;
71759;SDS011;59919;48.112;16.280;2024-03-23T02:49:13;2.67;;;2.30;;
71759;SDS011;59919;48.112;16.280;2024-03-23T02:51:46;2.35;;;2.15;;
71759;SDS011;59919;48.112;16.280;2024-03-23T02:54:19;2.40;;;2.00;;
71759;SDS011;59919;48.112;16.280;2024-03-23T02:56:51;2.40;;;2.10;;
71759;SDS011;59919;48.112;16.280;2024-03-23T02:59:26;1.85;;;1.75;;
71759;SDS011;59919;48.112;16.280;2024-03-23T03:02:17;2.47;;;2.15;;
71759;SDS011;59919;48.112;16.280;2024-03-23T03:04:48;2.20;;;1.70;;
71759;SDS011;59919;48.112;16.280;2024-03-23T03:07:19;2.10;;;1.90;;
71759;SDS011;59919;48.112;16.280;2024-03-23T03:09:50;2.22;;;2.00;;
71759;SDS011;59919;48.112;16.280;2024-03-23T03:12:21;2.95;;;2.10;;
71759;SDS011;59919;48.112;16.280;2024-03-23T03:14:52;2.38;;;1.95;;
71759;SDS011;59919;48.112;16.280;2024-03-23T03:17:24;2.10;;;1.83;;
71759;SDS011;59919;48.112;16.280;2024-03-23T03:19:55;2.15;;;1.95;;
71759;SDS011;59919;48.112;16.280;2024-03-23T03:22:30;2.88;;;2.05;;
71759;SDS011;59919;48.112;16.280;2024-03-23T03:25:01;2.35;;;2.15;;
71759;SDS011;59919;48.112;16.280;2024-03-23T03:27:33;2.08;;;1.80;;
71759;SDS011;59919;48.112;16.280;2024-03-23T03:30:05;2.90;;;1.80;;
71759;SDS011;59919;48.112;16.280;2024-03-23T03:32:39;4.00;;;2.30;;
71759;SDS011;59919;48.112;16.280;2024-03-23T03:35:10;2.20;;;1.95;;
71759;SDS011;59919;48.112;16.280;2024-03-23T03:37:41;2.28;;;2.08;;
71759;SDS011;59919;48.112;16.280;2024-03-23T03:40:14;2.95;;;1.83;;
71759;SDS011;59919;48.112;16.280;2024-03-23T03:42:48;2.05;;;1.83;;
71759;SDS011;59919;48.112;16.280;2024-03-23T03:45:19;2.00;;;1.70;;
71759;SDS011;59919;48.112;16.280;2024-03-23T03:47:51;2.08;;;1.88;;
71759;SDS011;59919;48.112;16.280;2024-03-23T03:50:22;2.10;;;1.80;;
71759;SDS011;59919;48.112;16.280;2024-03-23T03:52:56;1.75;;;1.65;;
71759;SDS011;59919;48.112;16.280;2024-03-23T03:55:27;1.88;;;1.70;;
71759;SDS011;59919;48.112;16.280;2024-03-23T03:57:58;2.00;;;1.77;;
71759;SDS011;59919;48.112;16.280;2024-03-23T04:00:30;2.35;;;2.15;;
71759;SDS011;59919;48.112;16.280;2024-03-23T04:03:01;3.47;;;1.80;;
71759;SDS011;59919;48.112;16.280;2024-03-23T04:05:35;2.03;;;1.83;;
71759;SDS011;59919;48.112;16.280;2024-03-23T04:08:07;2.55;;;1.92;;
71759;SDS011;59919;48.112;16.280;2024-03-23T04:10:38;2.75;;;1.90;;
71759;SDS011;59919;48.112;16.280;2024-03-23T04:13:09;1.80;;;1.60;;
71759;SDS011;59919;48.112;16.280;2024-03-23T04:15:42;2.05;;;1.83;;
71759;SDS011;59919;48.112;16.280;2024-03-23T04:18:13;2.58;;;2.20;;
71759;SDS011;59919;48.112;16.280;2024-03-23T04:20:44;2.38;;;2.00;;
71759;SDS011;59919;48.112;16.280;2024-03-23T04:23:22;1.90;;;1.73;;
71759;SDS011;59919;48.112;16.280;2024-03-23T04:25:53;2.58;;;2.03;;
71759;SDS011;59919;48.112;16.280;2024-03-23T04:28:25;2.80;;;2.00;;
71759;SDS011;59919;48.112;16.280;2024-03-23T04:30:56;2.35;;;1.60;;
71759;SDS011;59919;48.112;16.280;2024-03-23T04:33:27;2.17;;;1.73;;
71759;SDS011;59919;48.112;16.280;2024-03-23T04:35:58;2.22;;;1.75;;
71759;SDS011;59919;48.112;16.280;2024-03-23T04:38:29;1.88;;;1.77;;
71759;SDS011;59919;48.112;16.280;2024-03-23T04:41:00;3.53;;;2.03;;
71759;SDS011;59919;48.112;16.280;2024-03-23T04:43:32;2.03;;;1.80;;
71759;SDS011;59919;48.112;16.280;2024-03-23T04:46:03;2.30;;;1.88;;
71759;SDS011;59919;48.112;16.280;2024-03-23T04:48:36;2.03;;;1.83;;
71759;SDS011;59919;48.112;16.280;2024-03-23T04:51:08;2.70;;;1.90;;
71759;SDS011;59919;48.112;16.280;2024-03-23T04:53:40;3.05;;;2.00;;
71759;SDS011;59919;48.112;16.280;2024-03-23T04:56:14;2.28;;;2.00;;
71759;SDS011;59919;48.112;16.280;2024-03-23T04:58:48;2.35;;;1.95;;
71759;SDS011;59919;48.112;16.280;2024-03-23T05:01:19;2.33;;;2.00;;
71759;SDS011;59919;48.112;16.280;2024-03-23T05:03:53;2.95;;;1.83;;
71759;SDS011;59919;48.112;16.280;2024-03-23T05:06:26;1.88;;;1.77;;
71759;SDS011;59919;48.112;16.280;2024-03-23T05:09:00;2.20;;;1.83;;
71759;SDS011;59919;48.112;16.280;2024-03-23T05:11:37;1.77;;;1.65;;
71759;SDS011;59919;48.112;16.280;2024-03-23T05:14:10;1.95;;;1.70;;
71759;SDS011;59919;48.112;16.280;2024-03-23T05:16:44;1.88;;;1.67;;
71759;SDS011;59919;48.112;16.280;2024-03-23T05:19:15;1.80;;;1.70;;
71759;SDS011;59919;48.112;16.280;2024-03-23T05:21:49;2.80;;;1.80;;
71759;SDS011;59919;48.112;16.280;2024-03-23T05:24:20;2.15;;;1.88;;
71759;SDS011;59919;48.112;16.280;2024-03-23T05:26:53;3.28;;;1.80;;
71759;SDS011;59919;48.112;16.280;2024-03-23T05:29:24;2.28;;;2.00;;
71759;SDS011;59919;48.112;16.280;2024-03-23T05:32:00;1.83;;;1.60;;
71759;SDS011;59919;48.112;16.280;2024-03-23T05:34:32;1.90;;;1.70;;
71759;SDS011;59919;48.112;16.280;2024-03-23T05:37:04;2.85;;;1.70;;
71759;SDS011;59919;48.112;16.280;2024-03-23T05:39:38;2.53;;;2.00;;
71759;SDS011;59919;48.112;16.280;2024-03-23T05:42:09;1.90;;;1.70;;
71759;SDS011;59919;48.112;16.280;2024-03-23T05:44:40;1.80;;;1.70;;
71759;SDS011;59919;48.112;16.280;2024-03-23T05:47:11;2.05;;;1.80;;
71759;SDS011;59919;48.112;16.280;2024-03-23T05:49:47;1.88;;;1.67;;
71759;SDS011;59919;48.112;16.280;2024-03-23T05:52:18;1.70;;;1.60;;
71759;SDS011;59919;48.112;16.280;2024-03-23T05:54:49;2.75;;;1.77;;
71759;SDS011;59919;48.112;16.280;2024-03-23T05:57:20;3.45;;;1.70;;
71759;SDS011;59919;48.112;16.280;2024-03-23T05:59:52;2.85;;;1.65;;
71759;SDS011;59919;48.112;16.280;2024-03-23T06:02:23;2.65;;;1.85;;
71759;SDS011;59919;48.112;16.280;2024-03-23T06:04:55;8.32;;;2.10;;
71759;SDS011;59919;48.112;16.280;2024-03-23T06:07:26;2.33;;;1.60;;
71759;SDS011;59919;48.112;16.280;2024-03-23T06:10:02;4.13;;;2.30;;
71759;SDS011;59919;48.112;16.280;2024-03-23T06:12:33;2.60;;;1.70;;
71759;SDS011;59919;48.112;16.280;2024-03-23T06:15:04;2.72;;;1.90;;
71759;SDS011;59919;48.112;16.280;2024-03-23T06:17:37;1.95;;;1.73;;
71759;SDS011;59919;48.112;16.280;2024-03-23T06:20:09;2.90;;;1.85;;
71759;SDS011;59919;48.112;16.280;2024-03-23T06:22:40;4.05;;;1.98;;
71759;SDS011;59919;48.112;16.280;2024-03-23T06:25:18;4.13;;;1.80;;
71759;SDS011;59919;48.112;16.280;2024-03-23T06:27:49;7.05;;;2.13;;
71759;SDS011;59919;48.112;16.280;2024-03-23T06:30:20;3.67;;;1.73;;
71759;SDS011;59919;48.112;16.280;2024-03-23T06:32:51;6.47;;;2.05;;
71759;SDS011;59919;48.112;16.280;2024-03-23T06:35:23;2.47;;;1.67;;
71759;SDS011;59919;48.112;16.280;2024-03-23T06:37:54;3.65;;;1.73;;
71759;SDS011;59919;48.112;16.280;2024-03-23T06:40:31;9.32;;;2.20;;
71759;SDS011;59919;48.112;16.280;2024-03-23T06:43:05;3.58;;;2.03;;
71759;SDS011;59919;48.112;16.280;2024-03-23T06:45:36;5.72;;;1.83;;
71759;SDS011;59919;48.112;16.280;2024-03-23T06:48:07;7.97;;;1.90;;
71759;SDS011;59919;48.112;16.280;2024-03-23T06:50:38;6.25;;;2.15;;
71759;SDS011;59919;48.112;16.280;2024-03-23T06:53:09;11.23;;;2.83;;
71759;SDS011;59919;48.112;16.280;2024-03-23T06:55:41;11.05;;;2.55;;
71759;SDS011;59919;48.112;16.280;2024-03-23T06:58:14;16.85;;;3.35;;
71759;SDS011;59919;48.112;16.280;2024-03-23T07:00:45;4.65;;;2.53;;
71759;SDS011;59919;48.112;16.280;2024-03-23T07:03:20;5.93;;;2.67;;
71759;SDS011;59919;48.112;16.280;2024-03-23T07:05:52;7.60;;;2.92;;
71759;SDS011;59919;48.112;16.280;2024-03-23T07:08:23;6.35;;;2.85;;
71759;SDS011;59919;48.112;16.280;2024-03-23T07:10:54;9.15;;;3.05;;
71759;SDS011;59919;48.112;16.280;2024-03-23T07:13:25;9.15;;;2.83;;
71759;SDS011;59919;48.112;16.280;2024-03-23T07:15:56;5.38;;;2.90;;
71759;SDS011;59919;48.112;16.280;2024-03-23T07:18:30;11.82;;;3.47;;
71759;SDS011;59919;48.112;16.280;2024-03-23T07:21:01;6.03;;;2.95;;
71759;SDS011;59919;48.112;16.280;2024-03-23T07:23:32;6.75;;;3.00;;
71759;SDS011;59919;48.112;16.280;2024-03-23T07:26:04;4.32;;;2.70;;
71759;SDS011;59919;48.112;16.280;2024-03-23T07:28:36;7.93;;;2.75;;
71759;SDS011;59919;48.112;16.280;2024-03-23T07:31:08;4.53;;;2.70;;
71759;SDS011;59919;48.112;16.280;2024-03-23T07:33:44;6.63;;;2.72;;
71759;SDS011;59919;48.112;16.280;2024-03-23T07:36:22;10.00;;;2.95;;
71759;SDS011;59919;48.112;16.280;2024-03-23T07:38:53;10.23;;;2.95;;
71759;SDS011;59919;48.112;16.280;2024-03-23T07:41:24;4.93;;;2.38;;
71759;SDS011;59919;48.112;16.280;2024-03-23T07:44:01;10.05;;;2.70;;
71759;SDS011;59919;48.112;16.280;2024-03-23T07:46:32;6.82;;;2.47;;
71759;SDS011;59919;48.112;16.280;2024-03-23T07:49:06;6.18;;;2.80;;
71759;SDS011;59919;48.112;16.280;2024-03-23T07:51:37;7.85;;;2.55;;
71759;SDS011;59919;48.112;16.280;2024-03-23T07:54:10;5.63;;;2.33;;
71759;SDS011;59919;48.112;16.280;2024-03-23T07:56:44;3.13;;;2.65;;
71759;SDS011;59919;48.112;16.280;2024-03-23T07:59:15;15.23;;;2.90;;
71759;SDS011;59919;48.112;16.280;2024-03-23T08:01:46;3.97;;;2.28;;
71759;SDS011;59919;48.112;16.280;2024-03-23T08:04:17;3.97;;;2.30;;
71759;SDS011;59919;48.112;16.280;2024-03-23T08:06:52;6.50;;;3.05;;
71759;SDS011;59919;48.112;16.280;2024-03-23T08:09:25;6.20;;;2.45;;
71759;SDS011;59919;48.112;16.280;2024-03-23T08:11:56;4.90;;;2.70;;
71759;SDS011;59919;48.112;16.280;2024-03-23T08:14:27;7.50;;;2.65;;
71759;SDS011;59919;48.112;16.280;2024-03-23T08:16:58;5.22;;;2.72;;
71759;SDS011;59919;48.112;16.280;2024-03-23T08:19:30;5.07;;;2.33;;
71759;SDS011;59919;48.112;16.280;2024-03-23T08:22:01;3.00;;;2.67;;
71759;SDS011;59919;48.112;16.280;2024-03-23T08:24:34;7.28;;;3.10;;
71759;SDS011;59919;48.112;16.280;2024-03-23T08:27:05;8.82;;;2.88;;
71759;SDS011;59919;48.112;16.280;2024-03-23T08:29:39;5.85;;;2.85;;
71759;SDS011;59919;48.112;16.280;2024-03-23T08:32:10;8.00;;;3.38;;
71759;SDS011;59919;48.112;16.280;2024-03-23T08:34:42;8.38;;;3.30;;
71759;SDS011;59919;48.112;16.280;2024-03-23T08:37:14;8.15;;;3.45;;
71759;SDS011;59919;48.112;16.280;2024-03-23T08:39:45;5.65;;;2.83;;
71759;SDS011;59919;48.112;16.280;2024-03-23T08:42:18;9.32;;;3.25;;
71759;SDS011;59919;48.112;16.280;2024-03-23T08:44:49;7.70;;;3.00;;
71759;SDS011;59919;48.112;16.280;2024-03-23T08:47:20;6.82;;;3.25;;
71759;SDS011;59919;48.112;16.280;2024-03-23T08:49:51;9.10;;;4.18;;
71759;SDS011;59919;48.112;16.280;2024-03-23T08:52:22;4.13;;;2.63;;
71759;SDS011;59919;48.112;16.280;2024-03-23T08:54:53;7.70;;;2.65;;
71759;SDS011;59919;48.112;16.280;2024-03-23T08:57:24;4.30;;;2.80;;
71759;SDS011;59919;48.112;16.280;2024-03-23T08:59:55;5.60;;;2.65;;
71759;SDS011;59919;48.112;16.280;2024-03-23T09:02:26;6.07;;;2.78;;
71759;SDS011;59919;48.112;16.280;2024-03-23T09:04:57;6.10;;;2.70;;
71759;SDS011;59919;48.112;16.280;2024-03-23T09:07:34;4.95;;;2.80;;
71759;SDS011;59919;48.112;16.280;2024-03-23T09:10:06;7.25;;;2.80;;
71759;SDS011;59919;48.112;16.280;2024-03-23T09:12:38;9.32;;;3.53;;
71759;SDS011;59919;48.112;16.280;2024-03-23T09:15:11;12.48;;;4.00;;
71759;SDS011;59919;48.112;16.280;2024-03-23T09:17:42;6.28;;;3.47;;
71759;SDS011;59919;48.112;16.280;2024-03-23T09:20:13;6.68;;;3.22;;
71759;SDS011;59919;48.112;16.280;2024-03-23T09:22:44;8.10;;;3.17;;
71759;SDS011;59919;48.112;16.280;2024-03-23T09:25:15;5.68;;;2.90;;
71759;SDS011;59919;48.112;16.280;2024-03-23T09:27:46;8.95;;;3.30;;
71759;SDS011;59919;48.112;16.280;2024-03-23T09:30:17;9.05;;;2.97;;
71759;SDS011;59919;48.112;16.280;2024-03-23T09:32:50;9.85;;;3.28;;
71759;SDS011;59919;48.112;16.280;2024-03-23T09:35:22;6.10;;;2.72;;
71759;SDS011;59919;48.112;16.280;2024-03-23T09:37:56;5.43;;;2.53;;
71759;SDS011;59919;48.112;16.280;2024-03-23T09:40:27;4.00;;;2.55;;
71759;SDS011;59919;48.112;16.280;2024-03-23T09:42:58;8.07;;;2.88;;
71759;SDS011;59919;48.112;16.280;2024-03-23T09:45:29;3.60;;;2.55;;
71759;SDS011;59919;48.112;16.280;2024-03-23T09:48:06;5.13;;;2.47;;
71759;SDS011;59919;48.112;16.280;2024-03-23T09:50:42;3.65;;;2.70;;
71759;SDS011;59919;48.112;16.280;2024-03-23T09:53:16;6.50;;;2.30;;
71759;SDS011;59919;48.112;16.280;2024-03-23T09:55:48;5.43;;;2.17;;
71759;SDS011;59919;48.112;16.280;2024-03-23T09:58:19;4.00;;;2.58;;
71759;SDS011;59919;48.112;16.280;2024-03-23T10:00:54;5.85;;;2.38;;
71759;SDS011;59919;48.112;16.280;2024-03-23T10:03:25;5.35;;;2.47;;
71759;SDS011;59919;48.112;16.280;2024-03-23T10:06:02;4.38;;;2.17;;
71759;SDS011;59919;48.112;16.280;2024-03-23T10:08:36;8.60;;;2.30;;
71759;SDS011;59919;48.112;16.280;2024-03-23T10:11:14;6.00;;;2.30;;
71759;SDS011;59919;48.112;16.280;2024-03-23T10:13:46;7.90;;;2.25;;
71759;SDS011;59919;48.112;16.280;2024-03-23T10:16:24;5.25;;;2.25;;
71759;SDS011;59919;48.112;16.280;2024-03-23T10:18:57;5.30;;;2.10;;
71759;SDS011;59919;48.112;16.280;2024-03-23T10:21:28;2.88;;;1.88;;
71759;SDS011;59919;48.112;16.280;2024-03-23T10:24:07;5.03;;;1.95;;
71759;SDS011;59919;48.112;16.280;2024-03-23T10:26:39;6.43;;;2.30;;
71759;SDS011;59919;48.112;16.280;2024-03-23T10:29:11;4.03;;;2.17;;
71759;SDS011;59919;48.112;16.280;2024-03-23T10:31:43;4.15;;;2.00;;
71759;SDS011;59919;48.112;16.280;2024-03-23T10:34:24;3.47;;;2.03;;
71759;SDS011;59919;48.112;16.280;2024-03-23T10:36:58;4.32;;;2.75;;
71759;SDS011;59919;48.112;16.280;2024-03-23T10:39:36;4.05;;;1.92;;
71759;SDS011;59919;48.112;16.280;2024-03-23T10:42:08;5.68;;;2.00;;
71759;SDS011;59919;48.112;16.280;2024-03-23T10:44:42;9.68;;;2.03;;
71759;SDS011;59919;48.112;16.280;2024-03-23T10:47:16;3.80;;;2.05;;
71759;SDS011;59919;48.112;16.280;2024-03-23T10:49:47;4.05;;;1.90;;
71759;SDS011;59919;48.112;16.280;2024-03-23T10:52:19;3.10;;;1.70;;
71759;SDS011;59919;48.112;16.280;2024-03-23T10:54:51;5.63;;;2.00;;
71759;SDS011;59919;48.112;16.280;2024-03-23T10:57:23;4.78;;;2.08;;
71759;SDS011;59919;48.112;16.280;2024-03-23T11:00:02;3.28;;;1.65;;
71759;SDS011;59919;48.112;16.280;2024-03-23T11:02:34;5.70;;;1.67;;
71759;SDS011;59919;48.112;16.280;2024-03-23T11:08:37;5.90;;;1.88;;
71759;SDS011;59919;48.112;16.280;2024-03-23T11:11:16;3.95;;;1.90;;
71759;SDS011;59919;48.112;16.280;2024-03-23T11:13:55;3.53;;;1.55;;
71759;SDS011;59919;48.112;16.280;2024-03-23T11:16:28;2.78;;;1.80;;
71759;SDS011;59919;48.112;16.280;2024-03-23T11:22:04;3.67;;;1.73;;
71759;SDS011;59919;48.112;16.280;2024-03-23T11:24:38;4.78;;;2.13;;
71759;SDS011;59919;48.112;16.280;2024-03-23T11:27:19;4.38;;;1.70;;
71759;SDS011;59919;48.112;16.280;2024-03-23T11:29:50;3.33;;;2.00;;
71759;SDS011;59919;48.112;16.280;2024-03-23T11:32:24;4.75;;;1.80;;
71759;SDS011;59919;48.112;16.280;2024-03-23T11:35:00;5.88;;;1.85;;
71759;SDS011;59919;48.112;16.280;2024-03-23T11:37:33;3.55;;;1.63;;
71759;SDS011;59919;48.112;16.280;2024-03-23T11:40:17;6.88;;;2.10;;
71759;SDS011;59919;48.112;16.280;2024-03-23T11:42:54;4.65;;;1.75;;
71759;SDS011;59919;48.112;16.280;2024-03-23T11:45:27;3.58;;;1.70;;
71759;SDS011;59919;48.112;16.280;2024-03-23T11:48:06;2.60;;;1.48;;
71759;SDS011;59919;48.112;16.280;2024-03-23T11:50:45;2.42;;;1.40;;
71759;SDS011;59919;48.112;16.280;2024-03-23T11:53:21;2.97;;;1.85;;
71759;SDS011;59919;48.112;16.280;2024-03-23T11:55:59;4.00;;;1.60;;
71759;SDS011;59919;48.112;16.280;2024-03-23T11:58:32;4.13;;;1.35;;
71759;SDS011;59919;48.112;16.280;2024-03-23T12:01:09;2.47;;;1.65;;
71759;SDS011;59919;48.112;16.280;2024-03-23T12:03:43;3.88;;;1.50;;
71759;SDS011;59919;48.112;16.280;2024-03-23T12:06:21;1.98;;;1.70;;
71759;SDS011;59919;48.112;16.280;2024-03-23T12:08:52;2.47;;;1.45;;
71759;SDS011;59919;48.112;16.280;2024-03-23T12:11:36;2.05;;;1.42;;
71759;SDS011;59919;48.112;16.280;2024-03-23T12:14:07;3.28;;;1.73;;
71759;SDS011;59919;48.112;16.280;2024-03-23T12:16:38;2.05;;;1.45;;
71759;SDS011;59919;48.112;16.280;2024-03-23T12:19:11;2.15;;;1.48;;
71759;SDS011;59919;48.112;16.280;2024-03-23T12:21:42;4.50;;;1.63;;
71759;SDS011;59919;48.112;16.280;2024-03-23T12:24:15;2.22;;;1.40;;
71759;SDS011;59919;48.112;16.280;2024-03-23T12:26:51;4.28;;;1.60;;
71759;SDS011;59919;48.112;16.280;2024-03-23T12:29:22;2.80;;;1.65;;
71759;SDS011;59919;48.112;16.280;2024-03-23T12:31:53;4.60;;;1.63;;
71759;SDS011;59919;48.112;16.280;2024-03-23T12:34:24;8.20;;;1.55;;
71759;SDS011;59919;48.112;16.280;2024-03-23T12:36:58;4.18;;;1.60;;
71759;SDS011;59919;48.112;16.280;2024-03-23T12:39:29;7.43;;;1.90;;
71759;SDS011;59919;48.112;16.280;2024-03-23T12:42:00;3.15;;;1.90;;
71759;SDS011;59919;48.112;16.280;2024-03-23T12:44:31;9.30;;;1.75;;
71759;SDS011;59919;48.112;16.280;2024-03-23T12:47:02;3.40;;;1.63;;
71759;SDS011;59919;48.112;16.280;2024-03-23T12:49:34;2.63;;;1.55;;
71759;SDS011;59919;48.112;16.280;2024-03-23T12:52:05;4.03;;;1.65;;
71759;SDS011;59919;48.112;16.280;2024-03-23T12:54:38;3.30;;;1.35;;
71759;SDS011;59919;48.112;16.280;2024-03-23T12:57:09;2.85;;;1.40;;
71759;SDS011;59919;48.112;16.280;2024-03-23T12:59:40;4.53;;;1.55;;
71759;SDS011;59919;48.112;16.280;2024-03-23T13:02:21;4.75;;;1.75;;
71759;SDS011;59919;48.112;16.280;2024-03-23T13:04:55;10.45;;;1.75;;
71759;SDS011;59919;48.112;16.280;2024-03-23T13:07:26;6.43;;;2.28;;
71759;SDS011;59919;48.112;16.280;2024-03-23T13:10:00;4.55;;;1.60;;
71759;SDS011;59919;48.112;16.280;2024-03-23T13:12:31;8.07;;;1.90;;
71759;SDS011;59919;48.112;16.280;2024-03-23T13:15:05;4.72;;;1.70;;
71759;SDS011;59919;48.112;16.280;2024-03-23T13:17:36;7.25;;;1.70;;
71759;SDS011;59919;48.112;16.280;2024-03-23T13:20:08;2.85;;;1.20;;
71759;SDS011;59919;48.112;16.280;2024-03-23T13:22:46;4.63;;;1.42;;
71759;SDS011;59919;48.112;16.280;2024-03-23T13:25:18;3.50;;;1.52;;
71759;SDS011;59919;48.112;16.280;2024-03-23T13:27:49;3.97;;;1.30;;
71759;SDS011;59919;48.112;16.280;2024-03-23T13:30:20;3.60;;;1.50;;
71759;SDS011;59919;48.112;16.280;2024-03-23T13:32:51;2.78;;;1.60;;
71759;SDS011;59919;48.112;16.280;2024-03-23T13:35:22;3.97;;;1.23;;
71759;SDS011;59919;48.112;16.280;2024-03-23T13:37:55;3.25;;;1.60;;
71759;SDS011;59919;48.112;16.280;2024-03-23T13:40:30;5.63;;;1.45;;
71759;SDS011;59919;48.112;16.280;2024-03-23T13:43:01;2.38;;;1.20;;
71759;SDS011;59919;48.112;16.280;2024-03-23T13:45:35;1.92;;;1.40;;
71759;SDS011;59919;48.112;16.280;2024-03-23T13:48:07;1.45;;;1.20;;
71759;SDS011;59919;48.112;16.280;2024-03-23T13:50:38;2.88;;;1.38;;
71759;SDS011;59919;48.112;16.280;2024-03-23T13:53:10;2.83;;;1.20;;
71759;SDS011;59919;48.112;16.280;2024-03-23T13:55:46;4.00;;;1.25;;
71759;SDS011;59919;48.112;16.280;2024-03-23T13:58:20;3.38;;;1.30;;
71759;SDS011;59919;48.112;16.280;2024-03-23T14:00:56;2.28;;;1.15;;
71759;SDS011;59919;48.112;16.280;2024-03-23T14:03:28;3.22;;;1.35;;
71759;SDS011;59919;48.112;16.280;2024-03-23T14:06:00;3.20;;;1.35;;
71759;SDS011;59919;48.112;16.280;2024-03-23T14:08:37;1.25;;;0.82;;
71759;SDS011;59919;48.112;16.280;2024-03-23T14:11:12;4.03;;;1.10;;
71759;SDS011;59919;48.112;16.280;2024-03-23T14:13:43;9.70;;;1.48;;
71759;SDS011;59919;48.112;16.280;2024-03-23T14:16:17;7.03;;;1.30;;
71759;SDS011;59919;48.112;16.280;2024-03-23T14:18:48;3.78;;;1.20;;
71759;SDS011;59919;48.112;16.280;2024-03-23T14:21:19;4.72;;;1.00;;
71759;SDS011;59919;48.112;16.280;2024-03-23T14:23:50;10.77;;;1.30;;
71759;SDS011;59919;48.112;16.280;2024-03-23T14:26:21;7.90;;;2.10;;
71759;SDS011;59919;48.112;16.280;2024-03-23T14:28:52;2.17;;;1.05;;
71759;SDS011;59919;48.112;16.280;2024-03-23T14:31:26;4.88;;;1.10;;
71759;SDS011;59919;48.112;16.280;2024-03-23T14:33:59;1.95;;;1.10;;
71759;SDS011;59919;48.112;16.280;2024-03-23T14:36:32;2.92;;;1.08;;
71759;SDS011;59919;48.112;16.280;2024-03-23T14:39:03;2.58;;;1.20;;
71759;SDS011;59919;48.112;16.280;2024-03-23T14:41:37;6.03;;;1.00;;
71759;SDS011;59919;48.112;16.280;2024-03-23T14:44:08;6.97;;;1.27;;
71759;SDS011;59919;48.112;16.280;2024-03-23T14:46:39;3.65;;;1.02;;
71759;SDS011;59919;48.112;16.280;2024-03-23T14:49:14;2.97;;;1.17;;
71759;SDS011;59919;48.112;16.280;2024-03-23T14:51:49;6.18;;;1.25;;
71759;SDS011;59919;48.112;16.280;2024-03-23T14:54:20;2.53;;;1.17;;
71759;SDS011;59919;48.112;16.280;2024-03-23T14:56:56;6.45;;;1.10;;
71759;SDS011;59919;48.112;16.280;2024-03-23T14:59:31;3.70;;;0.90;;
71759;SDS011;59919;48.112;16.280;2024-03-23T15:02:03;2.33;;;0.77;;
71759;SDS011;59919;48.112;16.280;2024-03-23T15:04:34;1.52;;;0.85;;
71759;SDS011;59919;48.112;16.280;2024-03-23T15:07:08;2.03;;;0.90;;
71759;SDS011;59919;48.112;16.280;2024-03-23T15:09:39;3.30;;;0.82;;
71759;SDS011;59919;48.112;16.280;2024-03-23T15:12:12;1.60;;;0.70;;
71759;SDS011;59919;48.112;16.280;2024-03-23T15:14:45;3.35;;;0.82;;
71759;SDS011;59919;48.112;16.280;2024-03-23T15:17:16;1.73;;;0.80;;
71759;SDS011;59919;48.112;16.280;2024-03-23T15:19:50;1.27;;;1.00;;
71759;SDS011;59919;48.112;16.280;2024-03-23T15:22:21;2.55;;;0.90;;
71759;SDS011;59919;48.112;16.280;2024-03-23T15:24:52;2.15;;;0.90;;
71759;SDS011;59919;48.112;16.280;2024-03-23T15:27:23;0.95;;;0.70;;
71759;SDS011;59919;48.112;16.280;2024-03-23T15:29:58;2.25;;;0.82;;
71759;SDS011;59919;48.112;16.280;2024-03-23T15:32:29;2.10;;;1.00;;
71759;SDS011;59919;48.112;16.280;2024-03-23T15:35:04;2.15;;;0.70;;
71759;SDS011;59919;48.112;16.280;2024-03-23T15:37:37;2.75;;;0.80;;
71759;SDS011;59919;48.112;16.280;2024-03-23T15:40:11;4.07;;;0.80;;
71759;SDS011;59919;48.112;16.280;2024-03-23T15:42:43;1.55;;;0.90;;
71759;SDS011;59919;48.112;16.280;2024-03-23T15:45:15;1.98;;;0.80;;
71759;SDS011;59919;48.112;16.280;2024-03-23T15:47:46;1.83;;;0.70;;
71759;SDS011;59919;48.112;16.280;2024-03-23T15:50:17;4.18;;;1.00;;
71759;SDS011;59919;48.112;16.280;2024-03-23T15:52:49;2.25;;;0.75;;
71759;SDS011;59919;48.112;16.280;2024-03-23T15:55:21;1.58;;;0.80;;
71759;SDS011;59919;48.112;16.280;2024-03-23T15:57:52;8.02;;;0.98;;
71759;SDS011;59919;48.112;16.280;2024-03-23T16:00:23;7.25;;;1.13;;
71759;SDS011;59919;48.112;16.280;2024-03-23T16:02:54;9.38;;;1.33;;